createdAt,value
2019-03-23T00:01:55.770Z,101301.16
2019-03-23T00:04:59.091Z,101294.73
2019-03-23T00:08:02.415Z,101289.05
2019-03-23T00:11:05.813Z,101287.42
2019-03-23T00:14:09.152Z,101280.30
2019-03-23T00:17:12.488Z,101279.88
2019-03-23T00:20:16.289Z,101282.91
2019-03-23T00:23:19.621Z,101279.21
2019-03-23T00:26:22.927Z,101280.34
2019-03-23T00:29:26.266Z,101275.70
2019-03-23T00:32:29.571Z,101268.66
2019-03-23T00:35:32.899Z,101272.25
2019-03-23T00:38:36.225Z,101267.33
2019-03-23T00:41:39.554Z,101267.42
2019-03-23T00:44:42.907Z,101265.10
2019-03-23T00:47:46.191Z,101265.67
2019-03-23T00:50:49.604Z,101262.16
2019-03-23T00:53:52.966Z,101264.60
2019-03-23T00:56:56.299Z,101265.64
2019-03-23T00:59:59.632Z,101264.05
2019-03-23T01:03:02.960Z,101258.56
2019-03-23T01:06:06.282Z,101264.70
2019-03-23T01:09:09.624Z,101262.95
2019-03-23T01:12:12.923Z,101268.27
2019-03-23T01:15:16.250Z,101260.39
2019-03-23T01:18:19.548Z,101257.14
2019-03-23T01:21:23.150Z,101254.81
2019-03-23T01:24:26.470Z,101255.38
2019-03-23T01:27:32.928Z,101256.66
2019-03-23T01:30:36.555Z,101248.20
2019-03-23T01:33:43.395Z,101245.94
2019-03-23T01:36:47.181Z,101244.87
2019-03-23T01:39:50.554Z,101244.98
2019-03-23T01:42:54.256Z,101239.19
2019-03-23T01:45:58.172Z,101244.63
2019-03-23T01:49:02.388Z,101242.82
2019-03-23T01:52:06.465Z,101238.70
2019-03-23T01:55:10.105Z,101244.28
2019-03-23T01:58:14.282Z,101239.36
2019-03-23T02:01:18.628Z,101245.48
2019-03-23T02:04:22.457Z,101236.44
2019-03-23T02:07:25.791Z,101234.75
2019-03-23T02:10:30.218Z,101229.36
2019-03-23T02:13:34.002Z,101224.93
2019-03-23T02:16:39.747Z,101224.06
2019-03-23T02:19:43.428Z,101223.73
2019-03-23T02:22:49.459Z,101227.33
2019-03-23T02:25:53.358Z,101229.05
2019-03-23T02:28:57.343Z,101223.43
2019-03-23T02:32:01.616Z,101224.94
2019-03-23T02:35:09.056Z,101222.22
2019-03-23T02:38:12.400Z,101225.14
2019-03-23T02:41:15.682Z,101220.52
2019-03-23T02:44:19.089Z,101228.20
2019-03-23T02:47:22.427Z,101224.27
2019-03-23T02:50:25.850Z,101230.55
2019-03-23T02:53:29.182Z,101221.88
2019-03-23T02:56:32.520Z,101217.97
2019-03-23T02:59:35.846Z,101217.97
2019-03-23T03:02:39.188Z,101227.67
2019-03-23T03:05:42.510Z,101219.83
2019-03-23T03:08:45.828Z,101216.59
2019-03-23T03:11:49.147Z,101219.14
2019-03-23T03:14:52.489Z,101221.56
2019-03-23T03:17:55.815Z,101222.26
2019-03-23T03:20:59.389Z,101222.23
2019-03-23T03:24:02.701Z,101221.22
2019-03-23T03:27:06.018Z,101224.45
2019-03-23T03:30:11.146Z,101225.46
2019-03-23T03:33:14.443Z,101221.89
2019-03-23T03:36:17.753Z,101224.13
2019-03-23T03:39:21.061Z,101216.64
2019-03-23T03:42:24.449Z,101215.96
2019-03-23T03:45:29.103Z,101211.34
2019-03-23T03:48:32.413Z,101214.23
2019-03-23T03:51:35.724Z,101204.92
2019-03-23T03:54:39.020Z,101208.27
2019-03-23T03:57:42.332Z,101207.08
2019-03-23T04:00:45.624Z,101205.04
2019-03-23T04:03:48.938Z,101212.70
2019-03-23T04:06:52.237Z,101212.03
2019-03-23T04:09:55.565Z,101209.33
2019-03-23T04:12:59.068Z,101217.97
2019-03-23T04:16:02.365Z,101211.69
2019-03-23T04:19:05.693Z,101206.92
2019-03-23T04:22:08.974Z,101206.09
2019-03-23T04:25:12.301Z,101207.27
2019-03-23T04:28:15.627Z,101207.95
2019-03-23T04:31:18.939Z,101203.69
2019-03-23T04:34:22.261Z,101202.01
2019-03-23T04:37:25.567Z,101195.84
2019-03-23T04:40:28.865Z,101202.14
2019-03-23T04:43:32.169Z,101204.20
2019-03-23T04:46:35.501Z,101200.79
2019-03-23T04:49:38.829Z,101206.92
2019-03-23T04:52:42.131Z,101203.35
2019-03-23T04:55:45.440Z,101207.07
2019-03-23T04:58:48.739Z,101205.54
2019-03-23T05:01:52.069Z,101207.41
2019-03-23T05:04:55.369Z,101208.11
2019-03-23T05:07:58.701Z,101206.23
2019-03-23T05:11:02.042Z,101206.22
2019-03-23T05:14:05.344Z,101206.20
2019-03-23T05:17:08.692Z,101204.70
2019-03-23T05:20:13.728Z,101209.45
2019-03-23T05:23:17.030Z,101213.16
2019-03-23T05:26:20.343Z,101218.80
2019-03-23T05:29:23.660Z,101220.88
2019-03-23T05:32:27.014Z,101216.11
2019-03-23T05:35:30.323Z,101221.84
2019-03-23T05:38:43.613Z,101223.77
2019-03-23T05:41:38.703Z,101222.02
2019-03-23T05:44:42.478Z,101215.66
2019-03-23T05:47:45.796Z,101217.47
2019-03-23T05:50:49.105Z,101210.73
2019-03-23T05:53:52.437Z,101211.59
2019-03-23T05:56:55.790Z,101210.78
2019-03-23T05:59:59.108Z,101212.23
2019-03-23T06:03:02.432Z,101214.53
2019-03-23T06:06:05.733Z,101213.42
2019-03-23T06:09:09.059Z,101223.17
2019-03-23T06:12:12.372Z,101220.23
2019-03-23T06:15:15.676Z,101216.63
2019-03-23T06:18:19.022Z,101203.81
2019-03-23T06:21:22.321Z,101213.47
2019-03-23T06:24:25.657Z,101215.00
2019-03-23T06:27:28.966Z,101212.20
2019-03-23T06:30:32.308Z,101208.00
2019-03-23T06:33:35.653Z,101211.96
2019-03-23T06:36:39.107Z,101213.05
2019-03-23T06:39:42.505Z,101207.80
2019-03-23T06:42:45.923Z,101204.11
2019-03-23T06:45:49.354Z,101210.16
2019-03-23T06:48:52.751Z,101202.50
2019-03-23T06:51:56.175Z,101210.95
2019-03-23T06:54:59.563Z,101208.14
2019-03-23T06:58:02.963Z,101212.32
2019-03-23T07:01:06.383Z,101203.53
2019-03-23T07:04:09.806Z,101210.46
2019-03-23T07:07:13.218Z,101210.34
2019-03-23T07:10:16.621Z,101209.27
2019-03-23T07:13:20.023Z,101210.28
2019-03-23T07:16:24.942Z,101209.69
2019-03-23T07:19:28.397Z,101209.75
2019-03-23T07:22:31.832Z,101211.77
2019-03-23T07:25:35.246Z,101209.11
2019-03-23T07:28:38.644Z,101207.55
2019-03-23T07:31:42.055Z,101197.18
2019-03-23T07:34:45.458Z,101200.79
2019-03-23T07:37:48.873Z,101194.77
2019-03-23T07:40:52.278Z,101202.32
2019-03-23T07:43:55.689Z,101193.91
2019-03-23T07:46:59.104Z,101196.77
2019-03-23T07:50:02.585Z,101199.08
2019-03-23T07:53:06.247Z,101201.56
2019-03-23T07:56:09.645Z,101202.56
2019-03-23T07:59:13.062Z,101202.87
2019-03-23T08:02:16.482Z,101198.19
2019-03-23T08:05:19.884Z,101203.11
2019-03-23T08:08:23.311Z,101207.22
2019-03-23T08:11:26.707Z,101210.98
2019-03-23T08:14:30.111Z,101196.66
2019-03-23T08:17:33.552Z,101207.78
2019-03-23T08:20:36.954Z,101214.75
2019-03-23T08:23:40.393Z,101205.80
2019-03-23T08:26:43.785Z,101210.97
2019-03-23T08:29:47.214Z,101214.80
2019-03-23T08:32:50.624Z,101203.79
2019-03-23T08:35:53.997Z,101213.75
2019-03-23T08:38:57.407Z,101208.81
2019-03-23T08:42:00.813Z,101205.80
2019-03-23T08:45:05.599Z,101201.59
2019-03-23T08:48:09.018Z,101207.05
2019-03-23T08:51:12.415Z,101197.84
2019-03-23T08:54:15.842Z,101198.12
2019-03-23T08:57:19.227Z,101193.36
2019-03-23T09:00:22.631Z,101194.38
2019-03-23T09:03:26.042Z,101181.25
2019-03-23T09:06:29.418Z,101183.47
2019-03-23T09:09:32.821Z,101187.23
2019-03-23T09:12:36.221Z,101186.11
2019-03-23T09:15:39.632Z,101181.49
2019-03-23T09:18:43.121Z,101180.28
2019-03-23T09:21:46.510Z,101189.33
2019-03-23T09:24:49.917Z,101192.33
2019-03-23T09:27:53.321Z,101195.52
2019-03-23T09:30:56.745Z,101201.02
2019-03-23T09:34:00.178Z,101204.73
2019-03-23T09:37:03.549Z,101212.14
2019-03-23T09:40:10.953Z,101217.64
2019-03-23T09:43:12.499Z,101220.58
2019-03-23T09:46:15.919Z,101211.10
2019-03-23T09:49:19.324Z,101221.45
2019-03-23T09:52:22.716Z,101226.08
2019-03-23T09:55:28.667Z,101213.45
2019-03-23T09:58:32.350Z,101221.92
2019-03-23T10:01:35.747Z,101212.73
2019-03-23T10:04:39.156Z,101219.30
2019-03-23T10:07:42.570Z,101202.00
2019-03-23T10:10:45.947Z,101214.80
2019-03-23T10:13:49.351Z,101213.48
2019-03-23T10:16:52.773Z,101209.20
2019-03-23T10:19:56.195Z,101207.52
2019-03-23T10:22:59.604Z,101214.26
2019-03-23T10:26:03.033Z,101210.47
2019-03-23T10:29:06.500Z,101206.02
2019-03-23T10:32:09.950Z,101199.95
2019-03-23T10:35:13.363Z,101207.23
2019-03-23T10:38:16.783Z,101201.98
2019-03-23T10:41:20.202Z,101207.01
2019-03-23T10:44:23.607Z,101199.72
2019-03-23T10:47:27.082Z,101192.41
2019-03-23T10:50:30.505Z,101196.13
2019-03-23T10:53:33.907Z,101190.41
2019-03-23T10:56:37.399Z,101191.31
2019-03-23T10:59:41.101Z,101194.05
2019-03-23T11:02:44.517Z,101190.54
2019-03-23T11:05:48.260Z,101191.30
2019-03-23T11:08:51.767Z,101185.23
2019-03-23T11:11:55.171Z,101181.62
2019-03-23T11:14:58.568Z,101186.11
2019-03-23T11:18:02.043Z,101183.00
2019-03-23T11:21:05.484Z,101186.63
2019-03-23T11:24:08.881Z,101184.62
2019-03-23T11:27:12.268Z,101185.87
2019-03-23T11:30:15.682Z,101184.33
2019-03-23T11:33:19.068Z,101179.17
2019-03-23T11:36:22.512Z,101180.58
2019-03-23T11:39:25.963Z,101182.78
2019-03-23T11:42:29.382Z,101183.56
2019-03-23T11:45:32.756Z,101188.45
2019-03-23T11:48:36.169Z,101182.78
2019-03-23T11:51:39.565Z,101187.40
2019-03-23T11:54:42.970Z,101183.05
2019-03-23T11:57:46.384Z,101178.91
2019-03-23T12:00:49.809Z,101175.39
2019-03-23T12:03:53.179Z,101169.45
2019-03-23T12:06:56.569Z,101170.20
2019-03-23T12:10:00.041Z,101172.41
2019-03-23T12:13:03.461Z,101175.55
2019-03-23T12:16:06.868Z,101175.58
2019-03-23T12:19:10.270Z,101166.55
2019-03-23T12:22:13.677Z,101167.71
2019-03-23T12:25:17.078Z,101159.33
2019-03-23T12:28:20.477Z,101158.05
2019-03-23T12:31:23.903Z,101166.05
2019-03-23T12:34:27.347Z,101162.74
2019-03-23T12:37:32.501Z,101170.91
2019-03-23T12:40:36.558Z,101174.34
2019-03-23T12:43:40.006Z,101167.92
2019-03-23T12:46:48.199Z,101168.09
2019-03-23T12:49:48.528Z,101172.72
2019-03-23T12:52:51.947Z,101167.92
2019-03-23T12:55:55.334Z,101170.85
2019-03-23T12:58:58.763Z,101168.05
2019-03-23T13:02:02.165Z,101166.02
2019-03-23T13:05:06.773Z,101171.67
2019-03-23T13:08:10.193Z,101172.80
2019-03-23T13:11:23.128Z,101171.83
2019-03-23T13:14:18.714Z,101180.54
2019-03-23T13:17:22.115Z,101175.09
2019-03-23T13:20:25.639Z,101180.38
2019-03-23T13:23:29.035Z,101182.65
2019-03-23T13:26:32.421Z,101171.48
2019-03-23T13:29:35.821Z,101184.58
2019-03-23T13:32:39.209Z,101180.50
2019-03-23T13:35:42.627Z,101186.64
2019-03-23T13:38:46.046Z,101192.05
2019-03-23T13:41:50.372Z,101191.53
2019-03-23T13:44:53.791Z,101192.50
2019-03-23T13:47:57.195Z,101193.92
2019-03-23T13:51:02.281Z,101184.96
2019-03-23T13:54:05.603Z,101198.63
2019-03-23T13:57:08.997Z,101207.95
2019-03-23T14:00:12.407Z,101212.44
2019-03-23T14:03:15.807Z,101203.71
2019-03-23T14:06:19.232Z,101197.80
2019-03-23T14:09:22.668Z,101216.95
2019-03-23T14:12:26.044Z,101212.22
2019-03-23T14:15:29.433Z,101218.98
2019-03-23T14:18:32.837Z,101215.75
2019-03-23T14:21:36.248Z,101218.63
2019-03-23T14:24:39.660Z,101219.47
2019-03-23T14:27:43.059Z,101228.41
2019-03-23T14:30:46.470Z,101230.28
2019-03-23T14:33:49.868Z,101230.18
2019-03-23T14:36:53.314Z,101233.77
2019-03-23T14:39:56.742Z,101231.09
2019-03-23T14:43:00.195Z,101233.95
2019-03-23T14:46:03.598Z,101229.39
2019-03-23T14:49:06.911Z,101240.44
2019-03-23T14:52:10.236Z,101240.34
2019-03-23T14:55:13.571Z,101243.45
2019-03-23T14:58:16.885Z,101257.42
2019-03-23T15:01:20.199Z,101249.41
2019-03-23T15:04:23.775Z,101267.16
2019-03-23T15:07:27.087Z,101265.55
2019-03-23T15:10:30.410Z,101260.37
2019-03-23T15:13:33.726Z,101269.11
2019-03-23T15:16:37.040Z,101271.84
2019-03-23T15:19:40.334Z,101276.31
2019-03-23T15:22:43.645Z,101268.70
2019-03-23T15:25:46.974Z,101281.47
2019-03-23T15:28:50.288Z,101275.71
2019-03-23T15:31:53.791Z,101285.27
2019-03-23T15:34:57.103Z,101283.34
2019-03-23T15:38:01.914Z,101278.47
2019-03-23T15:41:05.232Z,101285.69
2019-03-23T15:44:08.534Z,101297.48
2019-03-23T15:47:11.924Z,101301.86
2019-03-23T15:50:15.246Z,101308.28
2019-03-23T15:53:18.559Z,101299.47
2019-03-23T15:56:21.886Z,101301.66
2019-03-23T15:59:25.200Z,101297.33
2019-03-23T16:02:28.506Z,101306.55
2019-03-23T16:05:31.815Z,101308.51
2019-03-23T16:08:35.132Z,101314.41
2019-03-23T16:11:38.444Z,101317.77
2019-03-23T16:14:41.750Z,101323.82
2019-03-23T16:17:45.062Z,101328.80
2019-03-23T16:20:48.372Z,101330.16
2019-03-23T16:23:51.689Z,101336.80
2019-03-23T16:26:55.014Z,101340.12
2019-03-23T16:29:58.310Z,101342.55
2019-03-23T16:33:01.843Z,101344.20
2019-03-23T16:36:05.143Z,101341.42
2019-03-23T16:39:08.474Z,101341.23
2019-03-23T16:42:11.841Z,101343.33
2019-03-23T16:45:15.139Z,101346.92
2019-03-23T16:48:18.447Z,101348.25
2019-03-23T16:51:21.739Z,101357.37
2019-03-23T16:54:25.067Z,101364.12
2019-03-23T16:57:28.393Z,101361.42
2019-03-23T17:00:36.037Z,101363.31
2019-03-23T17:03:39.356Z,101360.05
2019-03-23T17:06:46.556Z,101368.70
2019-03-23T17:09:47.769Z,101366.17
2019-03-23T17:12:55.382Z,101366.05
2019-03-23T17:15:56.161Z,101365.27
2019-03-23T17:18:59.514Z,101372.23
2019-03-23T17:22:02.919Z,101375.34
2019-03-23T17:25:06.638Z,101375.86
2019-03-23T17:28:09.946Z,101379.35
2019-03-23T17:31:13.328Z,101376.85
2019-03-23T17:34:16.667Z,101381.33
2019-03-23T17:37:20.049Z,101391.58
2019-03-23T17:40:24.620Z,101401.81
2019-03-23T17:43:27.874Z,101405.55
2019-03-23T17:46:31.186Z,101407.03
2019-03-23T17:49:34.513Z,101408.65
2019-03-23T17:52:37.826Z,101417.30
2019-03-23T17:55:41.136Z,101414.81
2019-03-23T17:58:44.435Z,101424.24
2019-03-23T18:01:47.824Z,101418.38
2019-03-23T18:04:51.167Z,101426.93
2019-03-23T18:07:54.835Z,101424.38
2019-03-23T18:10:58.684Z,101428.70
2019-03-23T18:14:06.514Z,101429.41
2019-03-23T18:17:10.736Z,101436.18
2019-03-23T18:20:14.646Z,101441.33
2019-03-23T18:23:18.817Z,101455.38
2019-03-23T18:26:22.290Z,101455.03
2019-03-23T18:29:25.587Z,101465.59
2019-03-23T18:32:29.397Z,101464.62
2019-03-23T18:35:33.829Z,101471.05
2019-03-23T18:38:39.493Z,101471.63
2019-03-23T18:41:42.827Z,101480.30
2019-03-23T18:44:46.130Z,101485.09
2019-03-23T18:47:49.446Z,101489.18
2019-03-23T18:50:54.262Z,101486.80
2019-03-23T18:53:58.558Z,101496.34
2019-03-23T18:57:02.575Z,101488.83
2019-03-23T19:00:08.506Z,101491.91
2019-03-23T19:03:12.070Z,101493.97
2019-03-23T19:06:16.086Z,101508.36
2019-03-23T19:09:20.571Z,101511.75
2019-03-23T19:12:23.934Z,101506.62
2019-03-23T19:15:27.420Z,101506.30
2019-03-23T19:18:30.752Z,101514.46
2019-03-23T19:21:34.129Z,101507.15
2019-03-23T19:24:38.530Z,101511.70
2019-03-23T19:27:41.850Z,101512.26
2019-03-23T19:30:45.227Z,101517.23
2019-03-23T19:33:48.564Z,101524.56
2019-03-23T19:36:51.892Z,101522.36
2019-03-23T19:39:55.228Z,101527.12
2019-03-23T19:42:59.694Z,101524.91
2019-03-23T19:46:03.322Z,101522.36
2019-03-23T19:49:06.620Z,101525.24
2019-03-23T19:52:09.966Z,101533.44
2019-03-23T19:55:13.359Z,101533.95
2019-03-23T19:58:16.800Z,101532.42
2019-03-23T20:01:20.208Z,101542.33
2019-03-23T20:04:23.570Z,101548.44
2019-03-23T20:07:33.002Z,101552.71
2019-03-23T20:10:31.950Z,101553.55
2019-03-23T20:13:35.426Z,101553.55
2019-03-23T20:16:38.786Z,101551.69
2019-03-23T20:19:42.121Z,101561.03
2019-03-23T20:22:45.711Z,101557.47
2019-03-23T20:25:49.207Z,101566.33
2019-03-23T20:28:52.533Z,101563.11
2019-03-23T20:31:55.986Z,101556.62
2019-03-23T20:35:01.642Z,101563.97
2019-03-23T20:38:04.970Z,101565.31
2019-03-23T20:41:08.395Z,101559.51
2019-03-23T20:44:11.724Z,101560.88
2019-03-23T20:47:15.068Z,101568.05
2019-03-23T20:50:18.391Z,101564.45
2019-03-23T20:53:21.743Z,101561.52
2019-03-23T20:56:25.088Z,101561.86
2019-03-23T20:59:28.425Z,101561.16
2019-03-23T21:02:31.749Z,101563.90
2019-03-23T21:05:35.106Z,101556.95
2019-03-23T21:08:38.422Z,101559.48
2019-03-23T21:11:41.927Z,101557.44
2019-03-23T21:14:45.347Z,101568.19
2019-03-23T21:17:51.429Z,101558.83
2019-03-23T21:20:53.783Z,101560.19
2019-03-23T21:23:57.082Z,101564.41
2019-03-23T21:27:02.263Z,101558.12
2019-03-23T21:30:13.590Z,101546.20
2019-03-23T21:33:16.933Z,101550.12
2019-03-23T21:36:20.288Z,101554.06
2019-03-23T21:39:23.735Z,101548.95
2019-03-23T21:42:27.067Z,101549.27
2019-03-23T21:45:30.438Z,101545.19
2019-03-23T21:48:33.805Z,101548.42
2019-03-23T21:51:37.119Z,101540.77
2019-03-23T21:54:40.435Z,101542.64
2019-03-23T21:57:43.795Z,101535.31
2019-03-23T22:00:47.113Z,101533.30
2019-03-23T22:03:50.425Z,101532.95
2019-03-23T22:06:54.068Z,101529.02
2019-03-23T22:09:57.640Z,101528.52
2019-03-23T22:13:01.000Z,101527.48
2019-03-23T22:16:05.398Z,101523.92
2019-03-23T22:19:08.832Z,101520.50
2019-03-23T22:22:12.176Z,101519.33
2019-03-23T22:25:15.910Z,101514.89
2019-03-23T22:28:19.244Z,101515.24
2019-03-23T22:31:22.663Z,101513.19
2019-03-23T22:34:25.999Z,101512.68
2019-03-23T22:37:29.331Z,101513.03
2019-03-23T22:40:32.647Z,101517.28
2019-03-23T22:43:36.120Z,101518.98
2019-03-23T22:46:39.478Z,101513.88
2019-03-23T22:49:42.800Z,101505.69
2019-03-23T22:52:46.171Z,101505.52
2019-03-23T22:55:49.542Z,101509.79
2019-03-23T22:58:52.853Z,101511.14
2019-03-23T23:01:56.215Z,101513.69
2019-03-23T23:04:59.534Z,101505.19
2019-03-23T23:08:02.889Z,101507.58
2019-03-23T23:11:06.286Z,101505.36
2019-03-23T23:14:09.642Z,101501.95
2019-03-23T23:17:12.999Z,101497.34
2019-03-23T23:20:16.900Z,101493.45
2019-03-23T23:23:20.219Z,101492.61
2019-03-23T23:26:23.537Z,101485.11
2019-03-23T23:29:29.115Z,101494.81
2019-03-23T23:32:32.552Z,101491.39
2019-03-23T23:35:36.156Z,101488.34
2019-03-23T23:38:39.498Z,101485.09
2019-03-23T23:41:42.990Z,101484.08
2019-03-23T23:44:46.361Z,101486.80
2019-03-23T23:47:49.812Z,101484.09
2019-03-23T23:50:53.842Z,101490.38
2019-03-23T23:53:57.193Z,101487.83
2019-03-23T23:57:00.537Z,101483.91
